Time;durP1;ratioP1;P1;durP2;ratioP2;P2;SDS_P1;SDS_P2;PMS_P1;PMS_P2;Temp;Humidity;BMP_temperature;BMP_pressure;BME280_temperature;BME280_humidity;BME280_pressure;Samples;Min_cycle;Max_cycle;Signal;HPM_P1;HPM_P2
2023/03/26 00:01:57;;;;;;;14.18;2.50;;;;;;;;;;5144857;27;20053;-82
2023/03/26 00:04:24;;;;;;;10.95;2.20;;;;;;;;;;5158185;27;20541;-81
2023/03/26 00:06:50;;;;;;;13.00;2.50;;;;;;;;;;5157900;27;20042;-81
2023/03/26 00:09:17;;;;;;;11.27;2.58;;;;;;;;;;5158050;27;20487;-81
2023/03/26 00:11:45;;;;;;;21.45;2.90;;;;;;;;;;5156668;27;20041;-81
2023/03/26 00:14:12;;;;;;;18.92;3.20;;;;;;;;;;5157691;27;20102;-81
2023/03/26 00:16:40;;;;;;;14.82;2.63;;;;;;;;;;5157961;27;20046;-81
2023/03/26 00:19:07;;;;;;;13.85;2.95;;;;;;;;;;5157396;27;20054;-81
2023/03/26 00:21:34;;;;;;;17.15;2.65;;;;;;;;;;5140195;27;20195;-81
2023/03/26 00:24:03;;;;;;;11.45;2.50;;;;;;;;;;5157709;27;20041;-81
2023/03/26 00:26:30;;;;;;;15.90;3.20;;;;;;;;;;5157582;27;20543;-81
2023/03/26 00:28:56;;;;;;;14.52;2.55;;;;;;;;;;5157517;27;20113;-81
2023/03/26 00:31:22;;;;;;;12.93;2.88;;;;;;;;;;5157516;27;20546;-81
2023/03/26 00:33:54;;;;;;;9.38;2.58;;;;;;;;;;5140108;27;20502;-80
2023/03/26 00:36:21;;;;;;;14.25;2.50;;;;;;;;;;5140374;27;20031;-81
2023/03/26 00:38:47;;;;;;;11.55;2.75;;;;;;;;;;5156813;27;20038;-82
2023/03/26 00:41:25;;;;;;;10.00;2.22;;;;;;;;;;5157314;27;20114;-81
2023/03/26 00:43:56;;;;;;;8.38;2.15;;;;;;;;;;5105708;27;20034;-81
2023/03/26 00:46:23;;;;;;;14.23;2.45;;;;;;;;;;5169022;27;20034;-81
2023/03/26 00:48:49;;;;;;;14.60;2.58;;;;;;;;;;5156759;27;20117;-82
2023/03/26 00:51:17;;;;;;;13.98;2.45;;;;;;;;;;5157127;27;20455;-81
2023/03/26 00:53:44;;;;;;;12.32;2.70;;;;;;;;;;5156647;27;20487;-82
2023/03/26 00:56:10;;;;;;;12.70;2.58;;;;;;;;;;5146720;27;20049;-81
2023/03/26 00:58:37;;;;;;;9.80;2.30;;;;;;;;;;5152723;27;20428;-81
2023/03/26 01:01:05;;;;;;;17.00;2.67;;;;;;;;;;5149719;27;20042;-81
2023/03/26 01:03:33;;;;;;;13.75;2.35;;;;;;;;;;5134254;27;20570;-81
2023/03/26 01:06:06;;;;;;;13.15;3.17;;;;;;;;;;5156539;27;20046;-81
2023/03/26 01:08:43;;;;;;;14.18;2.60;;;;;;;;;;5139903;27;20561;-82
2023/03/26 01:11:15;;;;;;;13.82;3.10;;;;;;;;;;5139480;27;20046;-82
2023/03/26 01:13:44;;;;;;;15.95;3.03;;;;;;;;;;5156465;27;20042;-81
2023/03/26 01:16:19;;;;;;;9.88;2.85;;;;;;;;;;5139467;27;20390;-81
2023/03/26 01:18:45;;;;;;;12.60;2.70;;;;;;;;;;5174949;27;20118;-81
2023/03/26 01:21:13;;;;;;;11.77;2.40;;;;;;;;;;5156204;27;20049;-81
2023/03/26 01:23:47;;;;;;;13.95;2.90;;;;;;;;;;5138763;27;20045;-81
2023/03/26 01:26:29;;;;;;;11.32;2.85;;;;;;;;;;5156503;27;20078;-81
2023/03/26 01:28:56;;;;;;;16.10;2.78;;;;;;;;;;5156348;27;20042;-81
2023/03/26 01:31:40;;;;;;;17.73;2.78;;;;;;;;;;5156134;27;20038;-82
2023/03/26 01:34:32;;;;;;;14.70;2.60;;;;;;;;;;5155160;27;20049;-82
2023/03/26 01:37:01;;;;;;;13.32;2.92;;;;;;;;;;5147034;27;20205;-82
2023/03/26 01:39:27;;;;;;;15.43;3.28;;;;;;;;;;5156239;27;20038;-81
2023/03/26 01:41:56;;;;;;;11.68;2.92;;;;;;;;;;5155898;27;20042;-81
2023/03/26 01:44:35;;;;;;;15.95;3.28;;;;;;;;;;5138800;27;20046;-81
2023/03/26 01:47:01;;;;;;;14.40;3.20;;;;;;;;;;5138721;27;20049;-81
2023/03/26 01:49:28;;;;;;;19.23;3.10;;;;;;;;;;5139045;27;20134;-82
2023/03/26 01:51:55;;;;;;;14.10;3.38;;;;;;;;;;5155777;27;20038;-81
2023/03/26 01:54:23;;;;;;;13.90;3.00;;;;;;;;;;5138647;27;20038;-81
2023/03/26 01:56:56;;;;;;;13.38;2.70;;;;;;;;;;5155530;27;20122;-81
2023/03/26 01:59:31;;;;;;;15.70;3.53;;;;;;;;;;5153390;27;20045;-81
2023/03/26 02:02:12;;;;;;;10.32;2.75;;;;;;;;;;5151487;27;20121;-81
2023/03/26 02:04:44;;;;;;;15.80;3.55;;;;;;;;;;5129904;27;20054;-81
2023/03/26 02:07:16;;;;;;;13.60;3.20;;;;;;;;;;5127487;27;20452;-81
2023/03/26 02:09:45;;;;;;;11.85;3.10;;;;;;;;;;5122918;28;20039;-80
2023/03/26 02:12:13;;;;;;;13.05;2.63;;;;;;;;;;5133219;27;20125;-81
2023/03/26 02:14:39;;;;;;;13.88;3.72;;;;;;;;;;5142219;27;20167;-81
2023/03/26 02:17:08;;;;;;;17.33;3.85;;;;;;;;;;5136152;27;20487;-81
2023/03/26 02:19:35;;;;;;;13.88;3.20;;;;;;;;;;5134829;27;20051;-81
2023/03/26 02:22:01;;;;;;;15.43;3.67;;;;;;;;;;5134681;27;20051;-81
2023/03/26 02:24:27;;;;;;;14.07;2.75;;;;;;;;;;5118127;27;20053;-81
2023/03/26 02:26:53;;;;;;;16.42;3.17;;;;;;;;;;5117531;27;20042;-81
2023/03/26 02:29:20;;;;;;;16.98;3.13;;;;;;;;;;5139157;27;20038;-81
2023/03/26 02:31:49;;;;;;;17.30;3.10;;;;;;;;;;5155106;27;20050;-81
2023/03/26 02:34:16;;;;;;;13.35;3.05;;;;;;;;;;5132033;27;20042;-81
2023/03/26 02:36:42;;;;;;;11.23;2.90;;;;;;;;;;5127531;27;20067;-81
2023/03/26 02:39:13;;;;;;;12.30;2.60;;;;;;;;;;5121541;27;20049;-81
2023/03/26 02:41:39;;;;;;;17.58;3.30;;;;;;;;;;5139102;27;20439;-81
2023/03/26 02:44:05;;;;;;;14.50;3.00;;;;;;;;;;5138675;27;20542;-81
2023/03/26 02:46:35;;;;;;;13.93;2.95;;;;;;;;;;5138787;27;20034;-81
2023/03/26 02:49:01;;;;;;;14.13;3.90;;;;;;;;;;5138491;27;20045;-81
2023/03/26 02:51:27;;;;;;;13.88;3.10;;;;;;;;;;5138384;27;20034;-80
2023/03/26 02:53:53;;;;;;;9.90;3.28;;;;;;;;;;5138642;27;20139;-81
2023/03/26 02:56:20;;;;;;;10.57;2.33;;;;;;;;;;5150616;27;20042;-80
2023/03/26 02:58:46;;;;;;;8.50;2.40;;;;;;;;;;5178013;27;20390;-80
2023/03/26 03:01:16;;;;;;;10.13;2.97;;;;;;;;;;5147595;27;20043;-80
2023/03/26 03:03:43;;;;;;;13.73;3.13;;;;;;;;;;5133957;27;20451;-81
2023/03/26 03:06:09;;;;;;;11.77;3.03;;;;;;;;;;5119585;27;20130;-81
2023/03/26 03:08:35;;;;;;;13.27;2.83;;;;;;;;;;5133130;27;20447;-81
2023/03/26 03:11:03;;;;;;;14.68;3.10;;;;;;;;;;5147027;27;20042;-81
2023/03/26 03:13:29;;;;;;;16.48;2.83;;;;;;;;;;5143718;27;20046;-80
2023/03/26 03:15:55;;;;;;;14.70;2.90;;;;;;;;;;5158434;27;20042;-81
2023/03/26 03:18:21;;;;;;;14.60;3.50;;;;;;;;;;5158955;27;20031;-81
2023/03/26 03:20:48;;;;;;;18.17;3.30;;;;;;;;;;5158753;27;20046;-81
2023/03/26 03:23:14;;;;;;;14.25;3.45;;;;;;;;;;5158870;27;20490;-81
2023/03/26 03:25:41;;;;;;;18.27;3.50;;;;;;;;;;5158843;27;20077;-81
2023/03/26 03:28:08;;;;;;;15.02;2.97;;;;;;;;;;5158790;27;20401;-81
2023/03/26 03:30:34;;;;;;;13.48;3.17;;;;;;;;;;5158270;27;20042;-81
2023/03/26 03:33:01;;;;;;;16.15;3.40;;;;;;;;;;5158283;27;20482;-81
2023/03/26 03:35:28;;;;;;;14.98;3.13;;;;;;;;;;5158642;27;20079;-81
2023/03/26 03:37:55;;;;;;;13.60;2.83;;;;;;;;;;5176763;27;20038;-80
2023/03/26 03:40:21;;;;;;;10.98;3.00;;;;;;;;;;5158650;27;20045;-79
2023/03/26 03:42:47;;;;;;;12.55;2.70;;;;;;;;;;5154263;27;20110;-80
2023/03/26 03:45:13;;;;;;;12.93;3.28;;;;;;;;;;5157123;27;20034;-81
2023/03/26 03:47:39;;;;;;;15.45;3.83;;;;;;;;;;5158646;27;20516;-80
2023/03/26 03:50:06;;;;;;;14.70;3.28;;;;;;;;;;5141127;27;20121;-80
2023/03/26 03:52:32;;;;;;;16.40;2.88;;;;;;;;;;5158380;27;20509;-81
2023/03/26 03:55:01;;;;;;;15.98;3.17;;;;;;;;;;5140582;27;20168;-81
2023/03/26 03:57:28;;;;;;;18.73;3.40;;;;;;;;;;5150393;27;20406;-81
2023/03/26 03:59:57;;;;;;;14.85;3.45;;;;;;;;;;5154600;27;20482;-81
2023/03/26 04:02:33;;;;;;;11.38;2.97;;;;;;;;;;5102463;27;20102;-80
2023/03/26 04:04:59;;;;;;;8.00;2.42;;;;;;;;;;5136969;27;20559;-81
2023/03/26 04:07:26;;;;;;;15.05;2.90;;;;;;;;;;5157664;27;20046;-81
2023/03/26 04:09:52;;;;;;;12.73;3.15;;;;;;;;;;5142259;27;20498;-81
2023/03/26 04:12:19;;;;;;;12.20;2.50;;;;;;;;;;5136842;27;20482;-81
2023/03/26 04:14:45;;;;;;;11.48;3.05;;;;;;;;;;5137234;27;20034;-81
2023/03/26 04:17:14;;;;;;;15.25;3.00;;;;;;;;;;5136614;27;20077;-81
2023/03/26 04:19:40;;;;;;;13.60;3.20;;;;;;;;;;5136849;27;20043;-81
2023/03/26 04:22:06;;;;;;;14.32;3.30;;;;;;;;;;5155190;27;20061;-81
2023/03/26 04:24:32;;;;;;;16.48;3.35;;;;;;;;;;5157769;27;20053;-81
2023/03/26 04:27:03;;;;;;;11.75;3.17;;;;;;;;;;5157797;27;20091;-81
2023/03/26 04:29:31;;;;;;;15.45;4.18;;;;;;;;;;5106577;27;20509;-81
2023/03/26 04:31:57;;;;;;;13.88;3.22;;;;;;;;;;5168354;27;20050;-80
2023/03/26 04:34:24;;;;;;;17.90;3.10;;;;;;;;;;5139950;27;20119;-81
2023/03/26 04:36:53;;;;;;;15.65;3.45;;;;;;;;;;5157239;27;20045;-81
2023/03/26 04:39:20;;;;;;;11.02;2.47;;;;;;;;;;5175804;27;20087;-80
2023/03/26 04:41:47;;;;;;;15.65;2.90;;;;;;;;;;5175818;27;20038;-80
2023/03/26 04:44:15;;;;;;;15.40;3.22;;;;;;;;;;5156998;27;20066;-80
2023/03/26 04:46:42;;;;;;;15.48;3.35;;;;;;;;;;5140304;27;20069;-80
2023/03/26 04:49:09;;;;;;;16.95;3.60;;;;;;;;;;5139431;27;20034;-80
2023/03/26 04:51:40;;;;;;;17.20;3.20;;;;;;;;;;5156865;27;20073;-80
2023/03/26 04:54:07;;;;;;;11.90;2.88;;;;;;;;;;5146874;27;20049;-81
2023/03/26 04:56:52;;;;;;;15.07;2.83;;;;;;;;;;5152759;27;20117;-80
2023/03/26 04:59:24;;;;;;;17.52;2.65;;;;;;;;;;5156250;27;20114;-81
2023/03/26 05:01:51;;;;;;;17.30;3.45;;;;;;;;;;5138374;27;20068;-81
2023/03/26 05:04:17;;;;;;;13.40;3.03;;;;;;;;;;5139261;27;20046;-81
2023/03/26 05:06:43;;;;;;;14.10;3.42;;;;;;;;;;5156816;27;20046;-80
2023/03/26 05:09:10;;;;;;;14.90;3.10;;;;;;;;;;5136752;27;20042;-80
2023/03/26 05:11:36;;;;;;;21.98;3.72;;;;;;;;;;5131369;27;20043;-81
2023/03/26 05:14:02;;;;;;;14.30;2.70;;;;;;;;;;5136316;27;20115;-80
2023/03/26 05:16:29;;;;;;;18.88;3.42;;;;;;;;;;5135565;27;20035;-80
2023/03/26 05:18:55;;;;;;;13.23;4.20;;;;;;;;;;5135550;27;20398;-81
2023/03/26 05:21:21;;;;;;;13.82;3.45;;;;;;;;;;5155242;27;20050;-81
2023/03/26 05:23:47;;;;;;;13.35;2.90;;;;;;;;;;5154438;27;20034;-81
2023/03/26 05:26:13;;;;;;;19.55;3.78;;;;;;;;;;5142475;27;20098;-81
2023/03/26 05:28:39;;;;;;;12.85;3.53;;;;;;;;;;5155798;27;20034;-81
2023/03/26 05:31:07;;;;;;;20.10;4.22;;;;;;;;;;5138288;27;20042;-81
2023/03/26 05:33:33;;;;;;;13.13;3.53;;;;;;;;;;5142932;27;20053;-81
2023/03/26 05:36:01;;;;;;;17.45;3.33;;;;;;;;;;5153420;27;20038;-81
2023/03/26 05:38:30;;;;;;;13.38;3.08;;;;;;;;;;5137961;27;20121;-80
2023/03/26 05:40:58;;;;;;;14.48;3.53;;;;;;;;;;5155462;27;20038;-80
2023/03/26 05:43:24;;;;;;;13.55;3.25;;;;;;;;;;5154921;27;20046;-80
2023/03/26 05:45:50;;;;;;;14.93;3.40;;;;;;;;;;5155405;27;20110;-80
2023/03/26 05:48:17;;;;;;;12.13;2.72;;;;;;;;;;5137844;27;20097;-80
2023/03/26 05:50:43;;;;;;;10.02;3.53;;;;;;;;;;5155676;27;20390;-80
2023/03/26 05:53:09;;;;;;;15.85;3.60;;;;;;;;;;5137875;27;20049;-81
2023/03/26 05:55:35;;;;;;;13.80;3.10;;;;;;;;;;5155085;27;20126;-81
2023/03/26 05:58:01;;;;;;;14.20;3.85;;;;;;;;;;5155391;27;20538;-81
2023/03/26 06:00:27;;;;;;;13.80;3.28;;;;;;;;;;5152757;27;20085;-81
2023/03/26 06:02:53;;;;;;;13.85;3.15;;;;;;;;;;5149909;27;20046;-81
2023/03/26 06:05:20;;;;;;;20.02;3.95;;;;;;;;;;5154808;27;20046;-81
2023/03/26 06:07:46;;;;;;;12.43;3.58;;;;;;;;;;5155129;27;20053;-81
2023/03/26 06:10:12;;;;;;;15.65;3.83;;;;;;;;;;5123030;27;20473;-81
2023/03/26 06:12:38;;;;;;;18.17;3.55;;;;;;;;;;5137911;27;20118;-81
2023/03/26 06:15:05;;;;;;;13.70;3.40;;;;;;;;;;5138104;27;20035;-81
2023/03/26 06:17:31;;;;;;;14.80;3.67;;;;;;;;;;5125094;27;20077;-81
2023/03/26 06:19:57;;;;;;;12.95;3.30;;;;;;;;;;5113301;27;1291704;-81
2023/03/26 06:22:23;;;;;;;18.52;3.20;;;;;;;;;;5178447;27;20271;-81
2023/03/26 06:24:51;;;;;;;15.35;3.67;;;;;;;;;;5160248;27;20456;-81
2023/03/26 06:27:17;;;;;;;13.18;3.30;;;;;;;;;;5160082;27;20094;-81
2023/03/26 06:29:44;;;;;;;15.30;3.47;;;;;;;;;;5159822;27;20098;-81
2023/03/26 06:32:10;;;;;;;18.23;3.30;;;;;;;;;;5159677;27;20042;-81
2023/03/26 06:34:36;;;;;;;17.15;2.97;;;;;;;;;;5159429;27;20042;-81
2023/03/26 06:37:02;;;;;;;18.08;3.25;;;;;;;;;;5159639;27;20044;-81
2023/03/26 06:39:28;;;;;;;15.00;2.90;;;;;;;;;;5159434;27;20038;-80
2023/03/26 06:41:54;;;;;;;14.75;3.25;;;;;;;;;;5159753;27;20049;-80
2023/03/26 06:44:20;;;;;;;16.35;3.40;;;;;;;;;;5177720;27;20538;-82
2023/03/26 06:46:47;;;;;;;11.85;2.45;;;;;;;;;;5159629;27;20046;-80
2023/03/26 06:49:13;;;;;;;17.15;3.20;;;;;;;;;;5127484;27;20049;-79
2023/03/26 06:51:40;;;;;;;22.10;4.55;;;;;;;;;;5159221;27;20049;-80
2023/03/26 06:54:06;;;;;;;19.85;4.22;;;;;;;;;;5159661;27;20050;-80
2023/03/26 06:56:32;;;;;;;24.50;4.53;;;;;;;;;;5159039;27;20044;-80
2023/03/26 06:58:58;;;;;;;15.50;3.58;;;;;;;;;;5159559;27;20041;-80
2023/03/26 07:01:24;;;;;;;20.05;3.83;;;;;;;;;;5151088;27;20060;-80
2023/03/26 07:03:50;;;;;;;17.73;3.60;;;;;;;;;;5159048;27;20034;-81
2023/03/26 07:06:16;;;;;;;15.48;3.10;;;;;;;;;;5141900;27;20042;-81
2023/03/26 07:08:42;;;;;;;18.95;3.03;;;;;;;;;;5146654;27;20043;-82
2023/03/26 07:11:09;;;;;;;19.27;3.88;;;;;;;;;;5148666;27;20042;-82
2023/03/26 07:13:36;;;;;;;14.60;2.97;;;;;;;;;;5120482;27;20038;-80
2023/03/26 07:16:02;;;;;;;18.70;3.67;;;;;;;;;;5138594;27;20072;-80
2023/03/26 07:18:28;;;;;;;15.10;2.85;;;;;;;;;;5137789;27;20537;-82
2023/03/26 07:20:54;;;;;;;14.93;2.42;;;;;;;;;;5136199;27;20070;-81
2023/03/26 07:23:21;;;;;;;21.10;2.67;;;;;;;;;;5158842;27;20049;-80
2023/03/26 07:25:48;;;;;;;17.65;3.80;;;;;;;;;;5158477;27;20038;-80
2023/03/26 07:28:27;;;;;;;15.75;2.88;;;;;;;;;;5158765;27;20042;-81
2023/03/26 07:31:14;;;;;;;15.85;2.90;;;;;;;;;;5158687;27;20034;-82
2023/03/26 07:33:47;;;;;;;12.18;2.33;;;;;;;;;;5106705;27;20050;-79
2023/03/26 07:36:32;;;;;;;13.93;2.17;;;;;;;;;;5107538;27;20118;-80
2023/03/26 07:39:25;;;;;;;15.88;2.60;;;;;;;;;;5136581;27;20053;-80
2023/03/26 07:42:09;;;;;;;12.52;2.40;;;;;;;;;;5154444;27;20053;-79
2023/03/26 07:44:53;;;;;;;18.73;2.63;;;;;;;;;;5157894;27;20034;-80
2023/03/26 07:47:24;;;;;;;12.88;2.13;;;;;;;;;;5140999;27;20053;-79
2023/03/26 07:49:52;;;;;;;14.57;2.53;;;;;;;;;;5140867;27;20038;-80
2023/03/26 07:52:18;;;;;;;15.10;2.50;;;;;;;;;;5143578;27;20042;-80
2023/03/26 07:54:44;;;;;;;17.92;2.58;;;;;;;;;;5157804;27;20120;-80
2023/03/26 07:57:24;;;;;;;18.05;2.40;;;;;;;;;;5158370;27;20133;-81
2023/03/26 08:00:00;;;;;;;16.85;2.20;;;;;;;;;;5157742;27;20038;-79
2023/03/26 08:02:40;;;;;;;13.13;1.83;;;;;;;;;;5158229;27;20120;-80
2023/03/26 08:05:18;;;;;;;16.92;2.50;;;;;;;;;;5158229;27;20045;-80
2023/03/26 08:07:55;;;;;;;16.63;2.38;;;;;;;;;;5157681;27;20136;-80
2023/03/26 08:10:25;;;;;;;21.20;2.50;;;;;;;;;;5137832;27;20034;-80
2023/03/26 08:12:59;;;;;;;16.27;2.47;;;;;;;;;;5152184;27;20123;-80
2023/03/26 08:15:32;;;;;;;11.55;2.47;;;;;;;;;;5157678;27;20086;-81
2023/03/26 08:18:02;;;;;;;12.18;2.45;;;;;;;;;;5157761;27;20060;-82
2023/03/26 08:20:37;;;;;;;14.95;2.40;;;;;;;;;;5153979;27;20059;-82
2023/03/26 08:23:06;;;;;;;12.60;2.40;;;;;;;;;;5154475;27;20043;-79
2023/03/26 08:25:43;;;;;;;16.40;2.40;;;;;;;;;;5154031;27;20376;-78
2023/03/26 08:28:25;;;;;;;15.27;1.98;;;;;;;;;;5139973;27;20046;-79
2023/03/26 08:30:53;;;;;;;19.80;3.22;;;;;;;;;;5153634;27;20117;-81
2023/03/26 08:33:20;;;;;;;16.52;2.35;;;;;;;;;;5154520;27;20114;-81
2023/03/26 08:35:47;;;;;;;17.73;2.50;;;;;;;;;;5136168;27;20046;-82
2023/03/26 08:38:14;;;;;;;15.25;2.45;;;;;;;;;;5136659;27;20051;-82
2023/03/26 08:41:04;;;;;;;14.35;2.10;;;;;;;;;;5153563;27;20046;-82
2023/03/26 08:43:39;;;;;;;18.77;2.40;;;;;;;;;;5143203;27;20138;-82
2023/03/26 08:46:22;;;;;;;17.40;2.85;;;;;;;;;;5136675;27;20031;-82
2023/03/26 08:49:06;;;;;;;13.55;2.15;;;;;;;;;;5153520;27;20084;-82
2023/03/26 08:51:44;;;;;;;15.65;2.53;;;;;;;;;;5139656;27;20043;-80
2023/03/26 08:54:10;;;;;;;16.13;2.10;;;;;;;;;;5113832;27;20067;-78
2023/03/26 08:56:42;;;;;;;15.68;2.45;;;;;;;;;;5153599;27;20058;-81
2023/03/26 08:59:19;;;;;;;13.27;2.03;;;;;;;;;;5153606;27;20045;-81
2023/03/26 09:02:04;;;;;;;14.40;2.20;;;;;;;;;;5147084;27;20045;-80
2023/03/26 09:04:37;;;;;;;15.93;2.55;;;;;;;;;;5153199;27;20091;-81
2023/03/26 09:07:05;;;;;;;13.18;2.10;;;;;;;;;;5153573;27;20418;-80
2023/03/26 09:09:50;;;;;;;20.60;2.50;;;;;;;;;;5127392;27;20129;-80
2023/03/26 09:12:22;;;;;;;14.82;2.20;;;;;;;;;;5119638;27;20035;-80
2023/03/26 09:15:07;;;;;;;14.80;2.70;;;;;;;;;;5132062;27;20042;-79
2023/03/26 09:17:33;;;;;;;20.23;2.40;;;;;;;;;;5121262;27;20391;-79
2023/03/26 09:20:07;;;;;;;12.82;2.20;;;;;;;;;;5131982;27;20487;-79
2023/03/26 09:22:33;;;;;;;13.05;2.35;;;;;;;;;;5132685;27;20434;-78
2023/03/26 09:25:09;;;;;;;19.75;3.08;;;;;;;;;;5133156;27;20503;-80
2023/03/26 09:27:54;;;;;;;15.32;2.20;;;;;;;;;;5119964;27;20035;-82
2023/03/26 09:30:31;;;;;;;14.35;2.15;;;;;;;;;;5125880;27;20042;-81
2023/03/26 09:32:57;;;;;;;15.93;2.08;;;;;;;;;;5152626;27;20043;-81
2023/03/26 09:35:38;;;;;;;16.15;3.28;;;;;;;;;;5153080;27;20042;-79
2023/03/26 09:38:23;;;;;;;12.93;2.95;;;;;;;;;;5152638;27;20039;-78
2023/03/26 09:41:01;;;;;;;15.45;2.22;;;;;;;;;;5152535;27;20038;-79
2023/03/26 09:43:37;;;;;;;13.48;2.30;;;;;;;;;;5138224;27;20126;-79
2023/03/26 09:46:12;;;;;;;15.07;2.22;;;;;;;;;;5152645;27;20467;-79
2023/03/26 09:48:47;;;;;;;11.60;2.43;;;;;;;;;;5152681;27;20053;-81
2023/03/26 09:51:22;;;;;;;16.02;2.20;;;;;;;;;;5153138;27;20546;-81
2023/03/26 09:53:52;;;;;;;17.53;2.43;;;;;;;;;;5152102;27;20042;-80
2023/03/26 09:56:31;;;;;;;15.23;2.45;;;;;;;;;;5135296;27;20094;-80
2023/03/26 09:58:57;;;;;;;10.30;2.63;;;;;;;;;;5148190;27;20072;-79
2023/03/26 10:01:23;;;;;;;14.25;2.78;;;;;;;;;;5115482;28;20146;-79
2023/03/26 10:03:50;;;;;;;14.52;2.00;;;;;;;;;;5131531;27;20049;-80
2023/03/26 10:06:36;;;;;;;11.10;2.30;;;;;;;;;;5135430;27;20041;-82
2023/03/26 10:09:05;;;;;;;15.02;2.38;;;;;;;;;;5134869;27;20290;-80
2023/03/26 10:11:49;;;;;;;14.02;2.10;;;;;;;;;;5126617;27;20039;-82
2023/03/26 10:14:16;;;;;;;14.93;2.20;;;;;;;;;;5131895;28;20043;-80
2023/03/26 10:16:52;;;;;;;10.77;2.15;;;;;;;;;;5131646;27;20071;-81
2023/03/26 10:19:37;;;;;;;13.80;2.45;;;;;;;;;;5131692;27;20082;-81
2023/03/26 10:22:12;;;;;;;10.85;2.63;;;;;;;;;;5131218;27;20112;-81
2023/03/26 10:24:38;;;;;;;8.93;1.70;;;;;;;;;;5131736;28;20046;-79
2023/03/26 10:27:06;;;;;;;16.00;3.70;;;;;;;;;;5131114;28;20050;-80
2023/03/26 10:29:51;;;;;;;14.90;2.13;;;;;;;;;;5131747;28;20122;-79
2023/03/26 10:32:17;;;;;;;11.27;1.90;;;;;;;;;;5114361;28;20073;-78
2023/03/26 10:34:50;;;;;;;11.25;1.98;;;;;;;;;;5131647;28;20043;-79
2023/03/26 10:37:35;;;;;;;10.90;2.28;;;;;;;;;;5131378;28;20031;-80
2023/03/26 10:40:01;;;;;;;15.50;2.92;;;;;;;;;;5114536;28;20471;-78
2023/03/26 10:42:41;;;;;;;12.35;2.08;;;;;;;;;;5131445;28;20043;-79
2023/03/26 10:45:10;;;;;;;10.77;2.30;;;;;;;;;;5139124;27;20043;-79
2023/03/26 10:47:36;;;;;;;12.55;2.13;;;;;;;;;;5135442;27;20041;-80
2023/03/26 10:50:22;;;;;;;8.57;1.70;;;;;;;;;;5135355;27;20049;-78
2023/03/26 10:52:49;;;;;;;;;;;;;;;;;;5110875;27;20051;-79
2023/03/26 10:55:21;;;;;;;12.45;2.30;;;;;;;;;;5138579;27;19968;-79
2023/03/26 10:57:55;;;;;;;12.70;1.98;;;;;;;;;;5155319;27;20046;-79
2023/03/26 11:00:27;;;;;;;12.32;2.60;;;;;;;;;;5154619;27;20046;-80
2023/03/26 11:03:07;;;;;;;13.60;1.90;;;;;;;;;;5117706;27;20095;-79
2023/03/26 11:05:50;;;;;;;10.05;2.20;;;;;;;;;;5121811;27;20046;-79
2023/03/26 11:08:29;;;;;;;12.02;2.17;;;;;;;;;;5151358;27;20487;-80
2023/03/26 11:10:55;;;;;;;9.90;1.90;;;;;;;;;;5124576;27;20054;-76
2023/03/26 11:13:40;;;;;;;14.02;2.58;;;;;;;;;;5134632;27;20047;-77
2023/03/26 11:16:15;;;;;;;11.57;2.00;;;;;;;;;;5134736;27;20035;-80
2023/03/26 11:18:41;;;;;;;10.73;2.28;;;;;;;;;;5139223;27;20113;-79
2023/03/26 11:21:11;;;;;;;13.82;2.05;;;;;;;;;;5138033;27;20038;-80
2023/03/26 11:23:45;;;;;;;12.50;2.08;;;;;;;;;;5121228;27;20543;-79
2023/03/26 11:26:14;;;;;;;15.77;2.08;;;;;;;;;;5120768;27;20058;-78
2023/03/26 11:28:59;;;;;;;16.85;2.47;;;;;;;;;;5138051;27;20099;-79
2023/03/26 11:31:34;;;;;;;10.70;1.65;;;;;;;;;;5121378;27;20440;-79
2023/03/26 11:34:04;;;;;;;12.13;1.95;;;;;;;;;;5120520;27;20121;-79
2023/03/26 11:36:34;;;;;;;7.97;1.75;;;;;;;;;;5137761;27;20035;-78
2023/03/26 11:39:03;;;;;;;14.43;1.75;;;;;;;;;;5137609;27;20122;-79
2023/03/26 11:41:30;;;;;;;8.95;1.55;;;;;;;;;;5120629;27;20031;-78
2023/03/26 11:44:14;;;;;;;11.52;1.92;;;;;;;;;;5155987;27;20126;-80
2023/03/26 11:46:42;;;;;;;11.27;2.10;;;;;;;;;;5137730;27;20046;-80
2023/03/26 11:49:10;;;;;;;11.60;1.50;;;;;;;;;;5137126;27;20049;-80
2023/03/26 11:51:38;;;;;;;11.82;1.70;;;;;;;;;;5137521;27;20046;-79
2023/03/26 11:54:05;;;;;;;7.47;1.80;;;;;;;;;;5137208;27;20053;-80
2023/03/26 11:56:31;;;;;;;9.35;2.00;;;;;;;;;;5120557;27;20524;-80
2023/03/26 11:59:01;;;;;;;6.80;1.48;;;;;;;;;;5137238;27;20050;-80
2023/03/26 12:01:29;;;;;;;15.02;1.67;;;;;;;;;;5138862;27;20041;-80
2023/03/26 12:04:03;;;;;;;9.15;1.90;;;;;;;;;;5140864;27;20117;-78
2023/03/26 12:06:29;;;;;;;6.70;1.40;;;;;;;;;;5157987;27;20046;-80
2023/03/26 12:08:56;;;;;;;11.57;1.92;;;;;;;;;;5124257;27;20505;-79
2023/03/26 12:11:26;;;;;;;11.63;1.75;;;;;;;;;;5130656;27;20125;-80
2023/03/26 12:13:59;;;;;;;14.20;2.15;;;;;;;;;;5137041;27;20038;-78
2023/03/26 12:16:26;;;;;;;11.20;1.77;;;;;;;;;;5129187;27;20069;-80
2023/03/26 12:18:59;;;;;;;11.70;1.88;;;;;;;;;;5157741;27;20061;-79
2023/03/26 12:21:26;;;;;;;12.77;1.92;;;;;;;;;;5157811;27;20038;-81
2023/03/26 12:23:56;;;;;;;14.07;2.15;;;;;;;;;;5140714;27;20038;-79
2023/03/26 12:26:32;;;;;;;13.90;2.28;;;;;;;;;;5140325;27;20046;-78
2023/03/26 12:29:03;;;;;;;12.50;2.10;;;;;;;;;;5143294;27;20073;-79
2023/03/26 12:31:41;;;;;;;14.20;1.90;;;;;;;;;;5157689;27;20042;-79
2023/03/26 12:34:14;;;;;;;11.88;1.77;;;;;;;;;;5150827;27;20045;-78
2023/03/26 12:36:48;;;;;;;9.18;1.73;;;;;;;;;;5150814;27;20042;-80
2023/03/26 12:39:32;;;;;;;13.05;1.70;;;;;;;;;;5140056;27;20038;-79
2023/03/26 12:42:00;;;;;;;14.15;2.20;;;;;;;;;;5157254;27;20042;-79
2023/03/26 12:44:36;;;;;;;12.55;2.25;;;;;;;;;;5157463;27;20034;-78
2023/03/26 12:47:11;;;;;;;13.45;2.20;;;;;;;;;;5157018;27;20359;-79
2023/03/26 12:49:38;;;;;;;8.80;1.80;;;;;;;;;;5157243;27;20121;-78
2023/03/26 12:52:09;;;;;;;10.13;2.40;;;;;;;;;;5156519;27;20030;-80
2023/03/26 12:54:44;;;;;;;10.90;1.70;;;;;;;;;;5136529;27;20038;-79
2023/03/26 12:57:17;;;;;;;9.10;1.42;;;;;;;;;;5150292;27;20041;-80
2023/03/26 12:59:43;;;;;;;14.82;2.45;;;;;;;;;;5144143;27;20042;-79
2023/03/26 13:02:31;;;;;;;10.23;1.70;;;;;;;;;;5153571;27;20046;-80
2023/03/26 13:05:03;;;;;;;8.88;1.70;;;;;;;;;;5156820;27;20159;-79
2023/03/26 13:07:49;;;;;;;15.13;2.00;;;;;;;;;;5144302;27;20051;-80
2023/03/26 13:10:24;;;;;;;12.75;2.00;;;;;;;;;;5121611;27;20483;-80
2023/03/26 13:13:11;;;;;;;15.02;2.13;;;;;;;;;;5136043;27;20074;-78
2023/03/26 13:15:40;;;;;;;12.88;2.00;;;;;;;;;;5138606;27;20109;-79
2023/03/26 13:18:22;;;;;;;18.67;2.65;;;;;;;;;;5156481;27;20486;-79
2023/03/26 13:20:57;;;;;;;11.25;2.00;;;;;;;;;;5156345;27;20087;-79
2023/03/26 13:23:25;;;;;;;6.07;1.67;;;;;;;;;;5156313;27;20041;-78
2023/03/26 13:26:01;;;;;;;14.57;1.98;;;;;;;;;;5153992;27;20046;-79
2023/03/26 13:28:46;;;;;;;10.95;1.63;;;;;;;;;;5145650;27;20042;-79
2023/03/26 13:31:20;;;;;;;11.05;1.75;;;;;;;;;;5174775;27;20030;-79
2023/03/26 13:33:49;;;;;;;16.55;2.88;;;;;;;;;;5156424;27;20046;-79
2023/03/26 13:36:20;;;;;;;7.30;1.55;;;;;;;;;;5155992;27;20041;-78
2023/03/26 13:38:55;;;;;;;11.20;1.70;;;;;;;;;;5156307;27;20061;-77
2023/03/26 13:41:26;;;;;;;9.55;2.22;;;;;;;;;;5156142;27;20038;-78
2023/03/26 13:43:57;;;;;;;12.60;1.90;;;;;;;;;;5156385;27;20508;-78
2023/03/26 13:46:29;;;;;;;11.57;2.17;;;;;;;;;;5138575;27;20042;-79
2023/03/26 13:49:00;;;;;;;14.13;2.17;;;;;;;;;;5156066;27;20038;-79
2023/03/26 13:51:26;;;;;;;12.75;1.67;;;;;;;;;;5153500;27;20046;-78
2023/03/26 13:53:58;;;;;;;10.60;2.28;;;;;;;;;;5144116;27;20042;-78
2023/03/26 13:56:37;;;;;;;15.27;2.85;;;;;;;;;;5155689;27;20117;-78
2023/03/26 13:59:24;;;;;;;10.75;1.40;;;;;;;;;;5147077;27;20180;-77
2023/03/26 14:01:54;;;;;;;11.52;1.70;;;;;;;;;;5140721;27;20042;-77
2023/03/26 14:04:23;;;;;;;9.80;1.70;;;;;;;;;;5155705;27;20034;-78
2023/03/26 14:07:13;;;;;;;12.60;1.60;;;;;;;;;;5156191;27;20491;-78
2023/03/26 14:09:44;;;;;;;11.50;1.92;;;;;;;;;;5120779;27;20115;-79
2023/03/26 14:12:10;;;;;;;8.95;1.40;;;;;;;;;;5156008;27;20046;-79
2023/03/26 14:14:45;;;;;;;17.02;1.80;;;;;;;;;;5155888;27;20038;-78
2023/03/26 14:17:22;;;;;;;11.55;1.90;;;;;;;;;;5141590;27;20042;-78
2023/03/26 14:19:57;;;;;;;9.63;1.52;;;;;;;;;;5155694;27;20081;-78
2023/03/26 14:22:35;;;;;;;7.35;1.30;;;;;;;;;;5155033;27;20039;-79
2023/03/26 14:25:19;;;;;;;12.50;1.63;;;;;;;;;;5138615;27;20049;-78
2023/03/26 14:28:05;;;;;;;9.38;1.95;;;;;;;;;;5174093;27;20553;-78
2023/03/26 14:30:31;;;;;;;10.77;1.52;;;;;;;;;;5155694;27;20038;-79
2023/03/26 14:33:16;;;;;;;5.22;1.35;;;;;;;;;;5159546;27;20183;-79
2023/03/26 14:35:54;;;;;;;10.30;1.42;;;;;;;;;;5133870;27;20038;-79
2023/03/26 14:38:39;;;;;;;9.20;1.25;;;;;;;;;;5177846;27;20125;-78
2023/03/26 14:41:18;;;;;;;7.30;1.30;;;;;;;;;;5147610;27;20042;-79
2023/03/26 14:44:03;;;;;;;7.25;1.52;;;;;;;;;;5159633;27;20073;-77
2023/03/26 14:46:48;;;;;;;8.32;1.65;;;;;;;;;;5159193;27;20038;-80
2023/03/26 14:49:35;;;;;;;10.30;1.85;;;;;;;;;;5159712;27;20554;-76
2023/03/26 14:52:04;;;;;;;9.18;1.58;;;;;;;;;;5159750;27;20482;-79
2023/03/26 14:54:32;;;;;;;8.82;1.30;;;;;;;;;;5158836;27;20058;-76